createdAt,value
2018-01-26T00:00:19.721Z,92.44
2018-01-26T00:02:46.675Z,92.37
2018-01-26T00:05:13.830Z,92.29
2018-01-26T00:07:41.510Z,92.83
2018-01-26T00:10:08.394Z,92.89
2018-01-26T00:12:35.482Z,92.68
2018-01-26T00:15:03.313Z,92.33
2018-01-26T00:17:30.149Z,92.83
2018-01-26T00:19:57.809Z,93.43
2018-01-26T00:22:25.125Z,92.69
2018-01-26T00:24:53.028Z,92.64
2018-01-26T00:27:24.096Z,92.65
2018-01-26T00:29:51.350Z,92.42
2018-01-26T00:32:23.915Z,92.36
2018-01-26T00:34:52.479Z,92.45
2018-01-26T00:37:19.786Z,92.38
2018-01-26T00:39:48.464Z,92.34
2018-01-26T00:42:16.265Z,92.33
2018-01-26T00:44:43.184Z,92.19
2018-01-26T00:47:10.270Z,92.07
2018-01-26T00:49:37.682Z,92.14
2018-01-26T00:52:05.175Z,92.17
2018-01-26T00:54:32.880Z,92.18
2018-01-26T00:57:05.336Z,92.78
2018-01-26T00:59:34.236Z,92.44
2018-01-26T01:02:01.211Z,92.44
2018-01-26T01:04:28.580Z,93.54
2018-01-26T01:06:55.376Z,93.47
2018-01-26T01:09:23.119Z,93.44
2018-01-26T01:11:55.144Z,92.82
2018-01-26T01:14:27.178Z,92.72
2018-01-26T01:16:54.066Z,92.50
2018-01-26T01:19:21.058Z,92.54
2018-01-26T01:21:48.992Z,92.82
2018-01-26T01:24:17.425Z,92.12
2018-01-26T01:26:44.402Z,91.91
2018-01-26T01:29:11.497Z,92.36
2018-01-26T01:31:38.308Z,92.72
2018-01-26T01:34:06.426Z,92.51
2018-01-26T01:36:34.088Z,92.70
2018-01-26T01:39:04.164Z,92.27
2018-01-26T01:41:36.985Z,92.28
2018-01-26T01:44:03.842Z,92.42
2018-01-26T01:46:31.160Z,92.32
2018-01-26T01:49:16.022Z,92.90
2018-01-26T01:51:43.276Z,92.92
2018-01-26T01:54:10.894Z,92.92
2018-01-26T01:56:37.794Z,93.50
2018-01-26T01:59:04.776Z,94.15
2018-01-26T02:01:32.464Z,93.41
2018-01-26T02:04:00.081Z,93.28
2018-01-26T02:06:27.245Z,93.72
2018-01-26T02:08:55.288Z,93.28
2018-01-26T02:11:22.231Z,94.40
2018-01-26T02:13:49.169Z,94.96
2018-01-26T02:16:21.422Z,94.85
2018-01-26T02:18:49.194Z,94.51
2018-01-26T02:21:16.892Z,93.98
2018-01-26T02:23:44.925Z,93.96
2018-01-26T02:26:11.922Z,93.88
2018-01-26T02:28:40.217Z,93.65
2018-01-26T02:31:07.141Z,93.68
2018-01-26T02:33:35.130Z,94.77
2018-01-26T02:36:02.046Z,95.45
2018-01-26T02:38:29.932Z,95.85
2018-01-26T02:41:02.905Z,95.08
2018-01-26T02:43:30.536Z,94.58
2018-01-26T02:45:57.465Z,94.95
2018-01-26T02:48:25.025Z,95.25
2018-01-26T02:50:52.003Z,95.36
2018-01-26T02:53:24.069Z,94.87
2018-01-26T02:55:52.060Z,95.13
2018-01-26T02:58:18.933Z,95.27
2018-01-26T03:00:51.129Z,94.75
2018-01-26T03:03:21.540Z,94.92
2018-01-26T03:05:48.700Z,95.01
2018-01-26T03:08:15.693Z,94.95
2018-01-26T03:10:44.439Z,95.19
2018-01-26T03:13:11.428Z,96.38
2018-01-26T03:15:38.239Z,96.03
2018-01-26T03:18:05.237Z,94.36
2018-01-26T03:20:32.137Z,95.88
2018-01-26T03:23:00.457Z,96.19
2018-01-26T03:25:27.629Z,95.50
2018-01-26T03:27:54.890Z,95.00
2018-01-26T03:33:15.783Z,96.85
2018-01-26T03:35:43.067Z,95.68
2018-01-26T03:38:10.100Z,95.64
2018-01-26T03:40:37.267Z,94.88
2018-01-26T03:43:04.890Z,95.44
2018-01-26T03:45:31.749Z,95.97
2018-01-26T03:47:58.755Z,96.09
2018-01-26T03:50:25.828Z,96.40
2018-01-26T03:52:52.804Z,96.18
2018-01-26T03:55:20.531Z,95.95
2018-01-26T03:57:47.915Z,95.68
2018-01-26T04:00:15.596Z,95.63
2018-01-26T04:02:43.985Z,94.57
2018-01-26T04:05:11.321Z,94.04
2018-01-26T04:07:39.249Z,93.90
2018-01-26T04:10:06.131Z,93.87
2018-01-26T04:12:33.119Z,93.42
2018-01-26T04:15:00.052Z,94.56
2018-01-26T04:17:27.097Z,95.80
2018-01-26T04:19:54.190Z,96.23
2018-01-26T04:22:21.168Z,95.82
2018-01-26T04:24:49.017Z,94.55
2018-01-26T04:27:16.249Z,94.29
2018-01-26T04:29:54.593Z,93.83
2018-01-26T04:32:21.881Z,93.51
2018-01-26T04:34:49.592Z,93.12
2018-01-26T04:37:16.533Z,94.20
2018-01-26T04:39:44.226Z,95.95
2018-01-26T04:42:12.709Z,95.51
2018-01-26T04:44:39.695Z,96.04
2018-01-26T04:47:14.692Z,95.81
2018-01-26T04:49:47.476Z,96.30
2018-01-26T04:52:15.698Z,96.11
2018-01-26T04:54:43.802Z,96.50
2018-01-26T04:57:16.692Z,95.82
2018-01-26T04:59:43.930Z,95.45
2018-01-26T05:02:11.164Z,96.25
2018-01-26T05:04:38.126Z,96.88
2018-01-26T05:07:05.548Z,96.95
2018-01-26T05:09:32.402Z,95.71
2018-01-26T05:11:59.365Z,94.74
2018-01-26T05:14:26.259Z,94.36
2018-01-26T05:16:53.924Z,94.91
2018-01-26T05:19:20.998Z,94.24
2018-01-26T05:21:47.972Z,93.91
2018-01-26T05:24:15.740Z,94.13
2018-01-26T05:26:48.056Z,93.38
2018-01-26T05:29:16.823Z,94.79
2018-01-26T05:31:46.526Z,95.87
2018-01-26T05:34:21.059Z,96.09
2018-01-26T05:36:48.220Z,95.84
2018-01-26T05:39:15.530Z,94.59
2018-01-26T05:41:43.057Z,94.09
2018-01-26T05:44:10.702Z,95.07
2018-01-26T05:46:37.542Z,95.70
2018-01-26T05:49:04.655Z,95.19
2018-01-26T05:51:31.688Z,94.32
2018-01-26T05:53:58.677Z,94.50
2018-01-26T05:56:26.497Z,95.38
2018-01-26T05:58:53.648Z,95.05
2018-01-26T06:01:20.752Z,95.87
2018-01-26T06:03:53.489Z,95.55
2018-01-26T06:06:21.295Z,95.07
2018-01-26T06:08:48.651Z,94.53
2018-01-26T06:11:21.835Z,94.39
2018-01-26T06:13:48.641Z,94.44
2018-01-26T06:16:15.695Z,94.50
2018-01-26T06:18:43.208Z,94.18
2018-01-26T06:21:10.048Z,94.90
2018-01-26T06:23:39.001Z,95.39
2018-01-26T06:26:06.007Z,95.24
2018-01-26T06:28:33.689Z,95.17
2018-01-26T06:31:01.853Z,96.28
2018-01-26T06:33:29.513Z,95.40
2018-01-26T06:35:56.813Z,95.38
2018-01-26T06:38:24.290Z,94.48
2018-01-26T06:40:51.967Z,95.96
2018-01-26T06:43:19.758Z,95.90
2018-01-26T06:45:46.678Z,95.56
2018-01-26T06:48:13.838Z,96.98
2018-01-26T06:50:40.843Z,96.92
2018-01-26T06:53:13.020Z,95.09
2018-01-26T06:55:39.953Z,94.81
2018-01-26T06:58:07.027Z,94.83
2018-01-26T07:00:34.240Z,94.69
2018-01-26T07:03:06.550Z,94.58
2018-01-26T07:05:40.959Z,94.42
2018-01-26T07:08:10.165Z,94.49
2018-01-26T07:10:39.419Z,94.73
2018-01-26T07:41:11.801Z,95.81
2018-01-26T07:58:46.094Z,95.27
2018-01-26T08:01:13.770Z,95.19
2018-01-26T08:03:42.271Z,95.39
2018-01-26T08:06:09.786Z,94.84
2018-01-26T08:26:39.442Z,95.08
2018-01-26T08:58:59.957Z,94.44
2018-01-26T09:40:36.176Z,94.15
2018-01-26T09:43:04.209Z,93.94
2018-01-26T09:45:31.362Z,94.17
2018-01-26T09:48:00.189Z,94.03
2018-01-26T09:50:27.311Z,94.04
2018-01-26T09:52:54.342Z,94.29
2018-01-26T09:55:21.608Z,94.11
2018-01-26T09:57:48.777Z,94.16
2018-01-26T10:00:15.985Z,93.77
2018-01-26T10:02:43.107Z,93.76
2018-01-26T10:05:10.256Z,93.84
2018-01-26T10:07:37.774Z,93.62
2018-01-26T10:10:04.888Z,93.31
2018-01-26T10:12:42.487Z,93.34
2018-01-26T10:15:16.912Z,93.27
2018-01-26T10:17:44.150Z,93.32
2018-01-26T10:20:11.193Z,93.00
2018-01-26T10:22:46.164Z,92.75
2018-01-26T10:25:13.294Z,92.52
2018-01-26T10:27:41.317Z,92.82
2018-01-26T10:30:10.326Z,92.65
2018-01-26T10:32:37.408Z,92.85
2018-01-26T10:35:04.487Z,92.45
2018-01-26T10:37:31.634Z,92.71
2018-01-26T10:39:58.691Z,92.31
2018-01-26T10:42:29.884Z,92.28
2018-01-26T10:44:57.019Z,92.47
2018-01-26T10:47:24.080Z,92.49
2018-01-26T10:49:52.152Z,92.27
2018-01-26T10:52:20.858Z,92.18
2018-01-26T10:54:47.868Z,92.03
2018-01-26T10:57:18.811Z,91.84
2018-01-26T10:59:47.092Z,91.65
2018-01-26T11:02:14.060Z,91.53
2018-01-26T11:04:41.951Z,91.34
2018-01-26T11:07:08.979Z,91.26
2018-01-26T11:09:41.227Z,91.53
2018-01-26T11:12:08.261Z,91.09
2018-01-26T11:14:35.301Z,90.73
2018-01-26T11:17:02.333Z,90.84
2018-01-26T11:19:30.218Z,90.53
2018-01-26T11:22:00.749Z,90.48
2018-01-26T11:24:29.326Z,90.39
2018-01-26T11:26:56.401Z,90.72
2018-01-26T11:29:23.293Z,90.02
2018-01-26T11:31:50.159Z,89.59
2018-01-26T11:34:17.811Z,89.76
2018-01-26T11:36:44.822Z,90.26
2018-01-26T11:39:11.813Z,89.57
2018-01-26T11:41:40.078Z,89.59
2018-01-26T11:44:07.159Z,90.16
2018-01-26T11:46:34.154Z,89.55
2018-01-26T11:49:01.142Z,89.94
2018-01-26T12:12:27.103Z,89.58
2018-01-26T12:14:53.977Z,89.76
2018-01-26T12:17:20.865Z,90.06
2018-01-26T12:19:48.517Z,89.18
2018-01-26T12:22:15.509Z,88.97
2018-01-26T12:24:42.440Z,88.82
2018-01-26T12:27:09.360Z,88.77
2018-01-26T12:29:37.184Z,89.19
2018-01-26T12:32:05.065Z,88.82
2018-01-26T12:34:32.012Z,88.71
2018-01-26T12:36:59.992Z,88.53
2018-01-26T12:39:26.894Z,88.50
2018-01-26T12:41:53.863Z,88.28
2018-01-26T12:44:20.824Z,88.52
2018-01-26T12:46:47.670Z,88.86
2018-01-26T12:49:14.626Z,88.63
2018-01-26T12:51:41.867Z,88.39
2018-01-26T12:54:08.757Z,88.14
2018-01-26T12:56:35.758Z,88.61
2018-01-26T12:59:03.417Z,88.16
2018-01-26T13:01:30.337Z,88.31
2018-01-26T13:03:57.273Z,87.97
2018-01-26T13:06:24.209Z,87.64
2018-01-26T13:08:51.273Z,87.85
2018-01-26T13:11:18.241Z,87.35
2018-01-26T13:13:45.169Z,87.63
2018-01-26T13:16:13.578Z,87.63
2018-01-26T13:39:24.054Z,88.13
2018-01-26T13:41:51.174Z,87.52
2018-01-26T13:44:18.242Z,87.41
2018-01-26T13:46:45.373Z,87.60
2018-01-26T13:49:12.359Z,87.22
2018-01-26T13:51:40.126Z,87.68
2018-01-26T13:54:07.152Z,87.33
2018-01-26T13:56:34.321Z,86.26
2018-01-26T13:59:01.963Z,86.54
2018-01-26T14:01:29.892Z,87.03
2018-01-26T14:03:56.879Z,86.36
2018-01-26T14:06:23.872Z,86.88
2018-01-26T14:08:50.932Z,86.63
2018-01-26T14:11:17.938Z,86.49
2018-01-26T14:13:45.091Z,86.57
2018-01-26T14:16:17.134Z,87.10
2018-01-26T14:18:44.100Z,86.94
2018-01-26T14:21:14.501Z,86.84
2018-01-26T14:23:42.699Z,86.52
2018-01-26T14:26:09.634Z,86.58
2018-01-26T14:28:42.158Z,86.48
2018-01-26T14:31:16.802Z,86.71
2018-01-26T14:33:44.652Z,86.50
2018-01-26T14:36:11.711Z,86.60
2018-01-26T14:38:38.779Z,86.65
2018-01-26T14:41:07.510Z,86.62
2018-01-26T14:43:39.218Z,86.76
2018-01-26T14:46:07.323Z,86.77
2018-01-26T14:48:35.895Z,87.11
2018-01-26T14:51:03.619Z,87.01
2018-01-26T14:53:30.662Z,87.01
2018-01-26T14:56:03.555Z,86.90
2018-01-26T14:58:30.488Z,86.68
2018-01-26T15:00:58.204Z,86.81
2018-01-26T15:03:25.279Z,86.65
2018-01-26T15:05:52.305Z,86.85
2018-01-26T15:08:20.045Z,87.07
2018-01-26T15:10:48.624Z,87.44
2018-01-26T15:13:15.898Z,87.37
2018-01-26T15:15:43.281Z,87.56
2018-01-26T15:18:10.471Z,87.48
2018-01-26T15:20:37.542Z,87.24
2018-01-26T15:23:08.335Z,87.22
2018-01-26T15:25:37.518Z,87.59
2018-01-26T15:28:05.201Z,87.82
2018-01-26T15:30:33.061Z,87.96
2018-01-26T15:33:00.954Z,87.88
2018-01-26T15:35:27.981Z,88.22
2018-01-26T15:37:57.280Z,88.09
2018-01-26T15:40:24.261Z,88.32
2018-01-26T15:42:51.382Z,88.40
2018-01-26T15:45:19.084Z,88.70
2018-01-26T15:47:46.288Z,88.31
2018-01-26T15:50:13.342Z,88.40
2018-01-26T15:52:40.795Z,88.01
2018-01-26T15:55:07.829Z,88.25
2018-01-26T15:57:34.894Z,88.52
2018-01-26T16:00:01.963Z,88.49
2018-01-26T16:02:29.172Z,88.11
2018-01-26T16:04:56.170Z,89.06
2018-01-26T16:07:23.394Z,89.51
2018-01-26T16:09:50.831Z,88.98
2018-01-26T16:12:18.569Z,89.42
2018-01-26T16:14:45.483Z,89.44
2018-01-26T16:17:13.335Z,90.26
2018-01-26T16:19:41.490Z,90.23
2018-01-26T16:22:08.403Z,91.31
2018-01-26T16:24:35.244Z,91.65
2018-01-26T16:27:03.096Z,91.40
2018-01-26T16:29:30.667Z,91.63
2018-01-26T16:31:57.675Z,90.92
2018-01-26T16:34:24.574Z,90.42
2018-01-26T16:36:51.455Z,90.01
2018-01-26T16:39:19.572Z,91.60
2018-01-26T16:41:47.404Z,92.31
2018-01-26T16:44:14.483Z,90.82
2018-01-26T16:46:42.951Z,90.09
2018-01-26T16:49:09.801Z,89.94
2018-01-26T16:51:36.726Z,91.13
2018-01-26T16:54:03.695Z,90.76
2018-01-26T16:56:33.425Z,90.58
2018-01-26T16:59:00.352Z,90.32
2018-01-26T17:01:27.244Z,89.60
2018-01-26T17:03:54.165Z,89.90
2018-01-26T17:06:21.256Z,90.16
2018-01-26T17:08:48.929Z,89.92
2018-01-26T17:11:15.854Z,89.92
2018-01-26T17:13:43.461Z,89.22
2018-01-26T17:16:11.949Z,90.62
2018-01-26T17:18:38.945Z,91.72
2018-01-26T17:21:06.575Z,91.31
2018-01-26T17:23:33.426Z,90.48
2018-01-26T17:26:00.298Z,90.36
2018-01-26T17:28:27.170Z,89.65
2018-01-26T17:30:54.221Z,90.53
2018-01-26T17:33:21.086Z,92.09
2018-01-26T17:35:48.102Z,90.94
2018-01-26T17:38:15.018Z,90.90
2018-01-26T17:40:41.961Z,90.74
2018-01-26T17:43:10.595Z,90.88
2018-01-26T17:45:37.572Z,91.10
2018-01-26T17:48:04.496Z,90.59
2018-01-26T17:50:31.358Z,90.98
2018-01-26T17:52:59.009Z,91.70
2018-01-26T17:55:27.245Z,92.18
2018-01-26T17:57:54.614Z,91.43
2018-01-26T18:00:21.672Z,90.42
2018-01-26T18:02:49.950Z,90.72
2018-01-26T18:05:17.546Z,89.85
2018-01-26T18:07:44.556Z,90.38
2018-01-26T18:10:11.876Z,90.28
2018-01-26T18:12:41.023Z,91.69
2018-01-26T18:15:10.584Z,91.83
2018-01-26T18:17:39.286Z,92.41
2018-01-26T18:20:07.449Z,93.23
2018-01-26T18:22:35.009Z,92.07
2018-01-26T18:25:01.903Z,91.78
2018-01-26T18:27:29.379Z,91.29
2018-01-26T18:29:58.261Z,90.70
2018-01-26T18:41:34.346Z,90.16
2018-01-26T18:44:03.396Z,90.31
2018-01-26T18:46:32.038Z,89.84
2018-01-26T18:49:00.366Z,89.80
2018-01-26T18:51:28.079Z,90.13
2018-01-26T18:53:55.003Z,89.72
2018-01-26T18:56:21.945Z,91.39
2018-01-26T18:58:49.675Z,91.60
2018-01-26T19:01:17.579Z,91.81
2018-01-26T19:03:45.340Z,92.32
2018-01-26T19:06:12.469Z,92.80
2018-01-26T19:08:40.787Z,93.16
2018-01-26T19:11:09.526Z,92.07
2018-01-26T19:13:38.136Z,92.57
2018-01-26T19:16:06.405Z,91.86
2018-01-26T19:18:35.143Z,90.72
2018-01-26T19:21:03.891Z,91.46
2018-01-26T19:23:33.536Z,90.69
2018-01-26T19:26:02.538Z,89.82
2018-01-26T19:28:31.500Z,88.63
2018-01-26T19:31:00.194Z,91.27
2018-01-26T19:33:29.048Z,90.35
2018-01-26T19:35:58.723Z,90.41
2018-01-26T19:38:32.885Z,91.70
2018-01-26T19:41:02.486Z,91.84
2018-01-26T19:43:31.383Z,93.03
2018-01-26T19:46:00.144Z,91.33
2018-01-26T19:48:28.863Z,89.69
2018-01-26T19:50:57.781Z,91.07
2018-01-26T19:53:26.751Z,91.80
2018-01-26T19:55:56.284Z,91.78
2018-01-26T19:58:25.271Z,91.87
2018-01-26T20:00:54.188Z,92.26
2018-01-26T20:03:32.973Z,92.58
2018-01-26T20:34:54.730Z,92.62
2018-01-26T20:37:24.338Z,92.69
2018-01-26T20:39:51.933Z,91.41
2018-01-26T20:42:20.670Z,89.59
2018-01-26T20:44:49.594Z,90.79
2018-01-26T20:47:18.422Z,92.38
2018-01-26T20:49:47.351Z,92.19
2018-01-26T20:52:16.932Z,91.25
2018-01-26T20:54:45.879Z,88.81
2018-01-26T20:57:15.618Z,90.58
2018-01-26T20:59:44.672Z,92.21
2018-01-26T21:02:13.539Z,91.07
2018-01-26T21:04:42.417Z,88.67
2018-01-26T21:07:11.413Z,89.75
2018-01-26T21:09:40.373Z,89.25
2018-01-26T21:12:09.467Z,90.92
2018-01-26T21:14:38.549Z,90.41
2018-01-26T21:17:07.380Z,89.47
2018-01-26T21:19:37.177Z,90.65
2018-01-26T21:22:06.624Z,91.76
2018-01-26T21:24:36.277Z,92.28
2018-01-26T21:27:04.885Z,91.72
2018-01-26T21:29:34.007Z,89.42
2018-01-26T21:32:01.489Z,88.77
2018-01-26T21:34:29.675Z,89.15
2018-01-26T21:36:58.546Z,88.29
2018-01-26T21:39:26.427Z,87.07
2018-01-26T21:41:55.033Z,87.24
2018-01-26T21:44:21.958Z,88.24
2018-01-26T21:46:50.045Z,87.64
2018-01-26T21:49:22.019Z,90.82
2018-01-26T21:51:50.409Z,90.96
2018-01-26T21:54:19.586Z,90.79
2018-01-26T21:56:48.036Z,91.53
2018-01-26T21:59:16.518Z,91.11
2018-01-26T22:01:44.306Z,89.64
2018-01-26T22:04:12.160Z,91.57
2018-01-26T22:06:46.195Z,91.70
2018-01-26T22:09:13.059Z,93.58
2018-01-26T22:11:40.180Z,92.47
2018-01-26T22:14:07.158Z,91.98
2018-01-26T22:16:35.402Z,90.97
2018-01-26T22:19:03.373Z,91.74
2018-01-26T22:21:33.967Z,92.20
2018-01-26T22:24:01.064Z,91.36
2018-01-26T22:26:27.925Z,90.07
2018-01-26T22:28:54.756Z,89.45
2018-01-26T22:31:22.507Z,89.35
2018-01-26T22:33:50.127Z,90.31
2018-01-26T22:36:18.152Z,91.61
2018-01-26T22:38:45.200Z,91.58
2018-01-26T22:41:12.331Z,91.57
2018-01-26T22:43:39.904Z,92.16
2018-01-26T22:46:06.745Z,93.37
2018-01-26T22:48:33.538Z,92.57
2018-01-26T22:51:01.113Z,90.63
2018-01-26T22:53:30.475Z,90.10
2018-01-26T22:55:57.314Z,90.27
2018-01-26T22:58:24.179Z,91.50
2018-01-26T23:00:51.798Z,90.92
2018-01-26T23:03:18.641Z,91.41
2018-01-26T23:05:45.504Z,90.24
2018-01-26T23:08:12.349Z,90.10
2018-01-26T23:10:40.138Z,89.80
2018-01-26T23:13:07.005Z,92.62
2018-01-26T23:15:33.838Z,92.87
2018-01-26T23:18:00.640Z,92.63
2018-01-26T23:20:27.464Z,91.25
2018-01-26T23:22:54.409Z,90.38
2018-01-26T23:25:21.303Z,90.64
2018-01-26T23:27:48.912Z,91.68
2018-01-26T23:30:15.860Z,90.45
2018-01-26T23:32:42.789Z,90.88
2018-01-26T23:35:09.579Z,91.61
2018-01-26T23:37:36.435Z,92.06
2018-01-26T23:42:46.307Z,92.20
2018-01-26T23:45:13.169Z,91.03
2018-01-26T23:47:40.018Z,90.94
2018-01-26T23:50:07.643Z,92.38
2018-01-26T23:52:34.479Z,92.61
2018-01-26T23:55:01.294Z,92.79
2018-01-26T23:57:28.095Z,93.13
2018-01-26T23:59:54.933Z,91.51
